sensor_id;sensor_type;location;lat;lon;timestamp;temperature;humidity
76613;DHT22;65507;48.454;-2.058;2023-08-30T00:01:32;17.10;72.30
76613;DHT22;65507;48.454;-2.058;2023-08-30T00:03:58;17.00;72.60
76613;DHT22;65507;48.454;-2.058;2023-08-30T00:06:23;16.90;73.80
76613;DHT22;65507;48.454;-2.058;2023-08-30T00:08:49;16.80;73.10
76613;DHT22;65507;48.454;-2.058;2023-08-30T00:11:14;16.80;73.10
76613;DHT22;65507;48.454;-2.058;2023-08-30T00:13:40;16.70;73.10
76613;DHT22;65507;48.454;-2.058;2023-08-30T00:16:08;16.70;73.20
76613;DHT22;65507;48.454;-2.058;2023-08-30T00:18:34;16.70;73.10
76613;DHT22;65507;48.454;-2.058;2023-08-30T00:20:59;16.60;73.10
76613;DHT22;65507;48.454;-2.058;2023-08-30T00:23:25;16.60;73.10
76613;DHT22;65507;48.454;-2.058;2023-08-30T00:25:50;16.60;72.90
76613;DHT22;65507;48.454;-2.058;2023-08-30T00:28:16;16.60;73.10
76613;DHT22;65507;48.454;-2.058;2023-08-30T00:30:41;16.60;72.90
76613;DHT22;65507;48.454;-2.058;2023-08-30T00:33:07;16.60;72.90
76613;DHT22;65507;48.454;-2.058;2023-08-30T00:35:33;16.60;73.00
76613;DHT22;65507;48.454;-2.058;2023-08-30T00:37:58;16.50;73.10
76613;DHT22;65507;48.454;-2.058;2023-08-30T00:40:24;16.50;73.10
76613;DHT22;65507;48.454;-2.058;2023-08-30T00:42:50;16.50;73.20
76613;DHT22;65507;48.454;-2.058;2023-08-30T00:45:15;16.50;73.20
76613;DHT22;65507;48.454;-2.058;2023-08-30T00:47:41;16.50;73.20
76613;DHT22;65507;48.454;-2.058;2023-08-30T00:50:06;16.50;73.20
76613;DHT22;65507;48.454;-2.058;2023-08-30T00:52:32;16.50;73.20
76613;DHT22;65507;48.454;-2.058;2023-08-30T00:54:58;16.50;73.20
76613;DHT22;65507;48.454;-2.058;2023-08-30T00:57:24;16.40;73.00
76613;DHT22;65507;48.454;-2.058;2023-08-30T00:59:50;16.40;73.20
76613;DHT22;65507;48.454;-2.058;2023-08-30T01:02:16;16.40;73.10
76613;DHT22;65507;48.454;-2.058;2023-08-30T01:04:42;16.40;73.20
76613;DHT22;65507;48.454;-2.058;2023-08-30T01:07:08;16.40;73.30
76613;DHT22;65507;48.454;-2.058;2023-08-30T01:09:33;16.40;73.30
76613;DHT22;65507;48.454;-2.058;2023-08-30T01:12:10;16.40;73.30
76613;DHT22;65507;48.454;-2.058;2023-08-30T01:14:45;16.40;73.00
76613;DHT22;65507;48.454;-2.058;2023-08-30T01:17:13;16.40;73.00
76613;DHT22;65507;48.454;-2.058;2023-08-30T01:22:17;16.40;73.00
76613;DHT22;65507;48.454;-2.058;2023-08-30T01:27:29;16.40;73.10
76613;DHT22;65507;48.454;-2.058;2023-08-30T01:29:57;18.60;74.20
76613;DHT22;65507;48.454;-2.058;2023-08-30T01:32:23;16.40;73.10
76613;DHT22;65507;48.454;-2.058;2023-08-30T01:34:51;16.40;73.00
76613;DHT22;65507;48.454;-2.058;2023-08-30T01:37:16;16.40;73.00
76613;DHT22;65507;48.454;-2.058;2023-08-30T01:39:42;16.40;72.90
76613;DHT22;65507;48.454;-2.058;2023-08-30T01:42:08;16.40;72.90
76613;DHT22;65507;48.454;-2.058;2023-08-30T01:44:34;16.40;72.90
76613;DHT22;65507;48.454;-2.058;2023-08-30T01:47:00;16.40;73.00
76613;DHT22;65507;48.454;-2.058;2023-08-30T01:49:26;16.40;73.20
76613;DHT22;65507;48.454;-2.058;2023-08-30T01:51:52;16.40;73.10
76613;DHT22;65507;48.454;-2.058;2023-08-30T01:54:18;16.30;73.10
76613;DHT22;65507;48.454;-2.058;2023-08-30T01:56:47;16.30;73.10
76613;DHT22;65507;48.454;-2.058;2023-08-30T01:59:13;16.30;73.10
76613;DHT22;65507;48.454;-2.058;2023-08-30T02:01:38;16.30;73.40
76613;DHT22;65507;48.454;-2.058;2023-08-30T02:04:04;16.30;73.30
76613;DHT22;65507;48.454;-2.058;2023-08-30T02:06:31;16.30;73.30
76613;DHT22;65507;48.454;-2.058;2023-08-30T02:11:42;16.30;73.20
76613;DHT22;65507;48.454;-2.058;2023-08-30T02:14:09;16.30;73.30
76613;DHT22;65507;48.454;-2.058;2023-08-30T02:16:36;16.30;73.20
76613;DHT22;65507;48.454;-2.058;2023-08-30T02:19:02;16.30;73.30
76613;DHT22;65507;48.454;-2.058;2023-08-30T02:21:28;16.30;73.40
76613;DHT22;65507;48.454;-2.058;2023-08-30T02:23:53;16.30;73.50
76613;DHT22;65507;48.454;-2.058;2023-08-30T02:26:19;16.30;73.70
76613;DHT22;65507;48.454;-2.058;2023-08-30T02:28:45;16.20;73.80
76613;DHT22;65507;48.454;-2.058;2023-08-30T02:31:11;16.20;73.60
76613;DHT22;65507;48.454;-2.058;2023-08-30T02:33:36;16.20;73.80
76613;DHT22;65507;48.454;-2.058;2023-08-30T02:36:03;16.20;73.70
76613;DHT22;65507;48.454;-2.058;2023-08-30T02:38:28;16.20;73.70
76613;DHT22;65507;48.454;-2.058;2023-08-30T02:40:54;16.20;73.70
76613;DHT22;65507;48.454;-2.058;2023-08-30T02:43:19;16.20;74.10
76613;DHT22;65507;48.454;-2.058;2023-08-30T02:45:45;16.20;73.80
76613;DHT22;65507;48.454;-2.058;2023-08-30T02:48:10;16.20;73.90
76613;DHT22;65507;48.454;-2.058;2023-08-30T02:50:36;16.20;73.90
76613;DHT22;65507;48.454;-2.058;2023-08-30T02:53:02;16.20;74.00
76613;DHT22;65507;48.454;-2.058;2023-08-30T02:55:28;16.20;74.10
76613;DHT22;65507;48.454;-2.058;2023-08-30T02:57:54;16.10;74.10
76613;DHT22;65507;48.454;-2.058;2023-08-30T03:00:19;16.20;74.00
76613;DHT22;65507;48.454;-2.058;2023-08-30T03:02:45;16.10;74.00
76613;DHT22;65507;48.454;-2.058;2023-08-30T03:05:10;16.10;74.20
76613;DHT22;65507;48.454;-2.058;2023-08-30T03:07:37;16.10;74.10
76613;DHT22;65507;48.454;-2.058;2023-08-30T03:10:03;16.10;74.20
76613;DHT22;65507;48.454;-2.058;2023-08-30T03:12:28;16.10;74.00
76613;DHT22;65507;48.454;-2.058;2023-08-30T03:14:54;16.10;74.10
76613;DHT22;65507;48.454;-2.058;2023-08-30T03:17:20;16.00;74.00
76613;DHT22;65507;48.454;-2.058;2023-08-30T03:19:45;16.00;74.10
76613;DHT22;65507;48.454;-2.058;2023-08-30T03:22:11;16.00;74.10
76613;DHT22;65507;48.454;-2.058;2023-08-30T03:24:36;16.00;74.10
76613;DHT22;65507;48.454;-2.058;2023-08-30T03:27:02;16.00;74.20
76613;DHT22;65507;48.454;-2.058;2023-08-30T03:29:28;16.00;74.20
76613;DHT22;65507;48.454;-2.058;2023-08-30T03:31:54;16.00;74.30
76613;DHT22;65507;48.454;-2.058;2023-08-30T03:34:19;15.90;74.30
76613;DHT22;65507;48.454;-2.058;2023-08-30T03:36:45;15.90;74.40
76613;DHT22;65507;48.454;-2.058;2023-08-30T03:39:16;15.90;74.50
76613;DHT22;65507;48.454;-2.058;2023-08-30T03:41:41;15.90;74.40
76613;DHT22;65507;48.454;-2.058;2023-08-30T03:44:07;15.90;74.40
76613;DHT22;65507;48.454;-2.058;2023-08-30T03:46:32;15.90;74.20
76613;DHT22;65507;48.454;-2.058;2023-08-30T03:48:58;15.90;74.30
76613;DHT22;65507;48.454;-2.058;2023-08-30T03:51:23;15.90;74.20
76613;DHT22;65507;48.454;-2.058;2023-08-30T03:53:49;15.90;74.20
76613;DHT22;65507;48.454;-2.058;2023-08-30T03:56:14;15.90;74.30
76613;DHT22;65507;48.454;-2.058;2023-08-30T03:58:40;15.90;74.60
76613;DHT22;65507;48.454;-2.058;2023-08-30T04:01:05;15.90;74.60
76613;DHT22;65507;48.454;-2.058;2023-08-30T04:03:32;15.90;74.70
76613;DHT22;65507;48.454;-2.058;2023-08-30T04:05:57;15.80;74.70
76613;DHT22;65507;48.454;-2.058;2023-08-30T04:08:23;15.80;74.70
76613;DHT22;65507;48.454;-2.058;2023-08-30T04:10:51;15.80;74.80
76613;DHT22;65507;48.454;-2.058;2023-08-30T04:13:17;15.80;74.70
76613;DHT22;65507;48.454;-2.058;2023-08-30T04:15:42;15.80;74.70
76613;DHT22;65507;48.454;-2.058;2023-08-30T04:18:08;15.70;74.70
76613;DHT22;65507;48.454;-2.058;2023-08-30T04:20:33;15.70;74.70
76613;DHT22;65507;48.454;-2.058;2023-08-30T04:22:59;15.70;74.80
76613;DHT22;65507;48.454;-2.058;2023-08-30T04:25:27;15.60;74.70
76613;DHT22;65507;48.454;-2.058;2023-08-30T04:27:52;15.60;74.70
76613;DHT22;65507;48.454;-2.058;2023-08-30T04:30:18;15.60;74.90
76613;DHT22;65507;48.454;-2.058;2023-08-30T04:32:43;15.60;75.20
76613;DHT22;65507;48.454;-2.058;2023-08-30T04:35:09;15.50;75.10
76613;DHT22;65507;48.454;-2.058;2023-08-30T04:37:35;15.50;75.00
76613;DHT22;65507;48.454;-2.058;2023-08-30T04:40:00;15.50;75.20
76613;DHT22;65507;48.454;-2.058;2023-08-30T04:42:26;15.40;75.30
76613;DHT22;65507;48.454;-2.058;2023-08-30T04:44:51;15.40;75.30
76613;DHT22;65507;48.454;-2.058;2023-08-30T04:47:19;15.30;75.40
76613;DHT22;65507;48.454;-2.058;2023-08-30T04:49:49;15.30;75.40
76613;DHT22;65507;48.454;-2.058;2023-08-30T04:52:15;15.20;75.40
76613;DHT22;65507;48.454;-2.058;2023-08-30T04:54:40;15.20;75.50
76613;DHT22;65507;48.454;-2.058;2023-08-30T04:57:07;15.20;75.70
76613;DHT22;65507;48.454;-2.058;2023-08-30T04:59:32;15.10;75.70
76613;DHT22;65507;48.454;-2.058;2023-08-30T05:01:58;15.10;75.60
76613;DHT22;65507;48.454;-2.058;2023-08-30T05:04:24;15.10;75.80
76613;DHT22;65507;48.454;-2.058;2023-08-30T05:06:49;15.00;75.60
76613;DHT22;65507;48.454;-2.058;2023-08-30T05:09:15;15.00;75.80
76613;DHT22;65507;48.454;-2.058;2023-08-30T05:11:40;14.90;76.00
76613;DHT22;65507;48.454;-2.058;2023-08-30T05:14:06;14.90;76.00
76613;DHT22;65507;48.454;-2.058;2023-08-30T05:16:32;14.90;76.40
76613;DHT22;65507;48.454;-2.058;2023-08-30T05:18:57;14.90;76.40
76613;DHT22;65507;48.454;-2.058;2023-08-30T05:21:23;14.80;76.10
76613;DHT22;65507;48.454;-2.058;2023-08-30T05:23:48;14.80;76.10
76613;DHT22;65507;48.454;-2.058;2023-08-30T05:26:14;14.80;76.10
76613;DHT22;65507;48.454;-2.058;2023-08-30T05:28:42;14.80;76.20
76613;DHT22;65507;48.454;-2.058;2023-08-30T05:31:07;14.70;76.20
76613;DHT22;65507;48.454;-2.058;2023-08-30T05:33:33;14.70;76.30
76613;DHT22;65507;48.454;-2.058;2023-08-30T05:35:58;14.70;76.40
76613;DHT22;65507;48.454;-2.058;2023-08-30T05:38:24;14.70;76.30
76613;DHT22;65507;48.454;-2.058;2023-08-30T05:40:49;14.60;76.30
76613;DHT22;65507;48.454;-2.058;2023-08-30T05:43:15;14.60;76.20
76613;DHT22;65507;48.454;-2.058;2023-08-30T05:45:41;14.60;76.20
76613;DHT22;65507;48.454;-2.058;2023-08-30T05:48:07;14.60;76.20
76613;DHT22;65507;48.454;-2.058;2023-08-30T05:50:32;14.60;76.30
76613;DHT22;65507;48.454;-2.058;2023-08-30T05:52:58;14.60;76.10
76613;DHT22;65507;48.454;-2.058;2023-08-30T05:55:23;14.60;76.10
76613;DHT22;65507;48.454;-2.058;2023-08-30T05:57:49;14.60;76.30
76613;DHT22;65507;48.454;-2.058;2023-08-30T06:00:14;14.60;76.10
76613;DHT22;65507;48.454;-2.058;2023-08-30T06:02:40;14.60;75.90
76613;DHT22;65507;48.454;-2.058;2023-08-30T06:05:06;14.60;75.80
76613;DHT22;65507;48.454;-2.058;2023-08-30T06:07:31;14.70;75.80
76613;DHT22;65507;48.454;-2.058;2023-08-30T06:09:57;14.70;75.70
76613;DHT22;65507;48.454;-2.058;2023-08-30T06:12:23;14.80;75.70
76613;DHT22;65507;48.454;-2.058;2023-08-30T06:14:48;14.90;75.60
76613;DHT22;65507;48.454;-2.058;2023-08-30T06:17:17;14.90;75.20
76613;DHT22;65507;48.454;-2.058;2023-08-30T06:19:44;15.00;75.10
76613;DHT22;65507;48.454;-2.058;2023-08-30T06:22:09;15.10;75.00
76613;DHT22;65507;48.454;-2.058;2023-08-30T06:24:35;15.20;75.00
76613;DHT22;65507;48.454;-2.058;2023-08-30T06:27:00;15.20;74.90
76613;DHT22;65507;48.454;-2.058;2023-08-30T06:29:26;15.30;74.80
76613;DHT22;65507;48.454;-2.058;2023-08-30T06:31:51;15.30;74.70
76613;DHT22;65507;48.454;-2.058;2023-08-30T06:34:17;15.40;74.70
76613;DHT22;65507;48.454;-2.058;2023-08-30T06:36:42;15.50;74.70
76613;DHT22;65507;48.454;-2.058;2023-08-30T06:39:08;15.50;74.60
76613;DHT22;65507;48.454;-2.058;2023-08-30T06:41:33;15.50;74.60
76613;DHT22;65507;48.454;-2.058;2023-08-30T06:43:59;15.60;74.60
76613;DHT22;65507;48.454;-2.058;2023-08-30T06:46:25;15.60;74.50
76613;DHT22;65507;48.454;-2.058;2023-08-30T06:48:50;15.60;74.50
76613;DHT22;65507;48.454;-2.058;2023-08-30T06:51:16;15.60;74.70
76613;DHT22;65507;48.454;-2.058;2023-08-30T06:53:41;15.60;74.90
76613;DHT22;65507;48.454;-2.058;2023-08-30T06:56:07;15.60;74.80
76613;DHT22;65507;48.454;-2.058;2023-08-30T06:58:32;15.60;74.80
76613;DHT22;65507;48.454;-2.058;2023-08-30T07:00:58;15.70;74.50
76613;DHT22;65507;48.454;-2.058;2023-08-30T07:03:24;15.80;74.50
76613;DHT22;65507;48.454;-2.058;2023-08-30T07:05:52;16.00;74.20
76613;DHT22;65507;48.454;-2.058;2023-08-30T07:08:18;16.00;73.90
76613;DHT22;65507;48.454;-2.058;2023-08-30T07:10:44;16.00;74.00
76613;DHT22;65507;48.454;-2.058;2023-08-30T07:13:09;16.10;74.30
76613;DHT22;65507;48.454;-2.058;2023-08-30T07:15:39;16.10;74.10
76613;DHT22;65507;48.454;-2.058;2023-08-30T07:18:05;16.20;73.90
76613;DHT22;65507;48.454;-2.058;2023-08-30T07:20:31;16.30;74.30
76613;DHT22;65507;48.454;-2.058;2023-08-30T07:22:56;16.30;73.90
76613;DHT22;65507;48.454;-2.058;2023-08-30T07:25:22;16.30;74.20
76613;DHT22;65507;48.454;-2.058;2023-08-30T07:27:48;16.20;74.30
76613;DHT22;65507;48.454;-2.058;2023-08-30T07:30:13;16.10;74.30
76613;DHT22;65507;48.454;-2.058;2023-08-30T07:32:40;16.10;74.60
76613;DHT22;65507;48.454;-2.058;2023-08-30T07:35:05;16.10;74.50
76613;DHT22;65507;48.454;-2.058;2023-08-30T07:37:31;16.00;74.70
76613;DHT22;65507;48.454;-2.058;2023-08-30T07:39:56;16.00;74.90
76613;DHT22;65507;48.454;-2.058;2023-08-30T07:42:22;16.00;75.00
76613;DHT22;65507;48.454;-2.058;2023-08-30T07:44:48;16.00;75.10
76613;DHT22;65507;48.454;-2.058;2023-08-30T07:47:13;15.90;75.20
76613;DHT22;65507;48.454;-2.058;2023-08-30T07:49:39;15.90;75.10
76613;DHT22;65507;48.454;-2.058;2023-08-30T07:52:04;15.90;75.10
76613;DHT22;65507;48.454;-2.058;2023-08-30T07:54:30;15.90;75.10
76613;DHT22;65507;48.454;-2.058;2023-08-30T07:56:56;16.00;75.00
76613;DHT22;65507;48.454;-2.058;2023-08-30T07:59:22;16.10;74.90
76613;DHT22;65507;48.454;-2.058;2023-08-30T08:01:47;16.10;74.70
76613;DHT22;65507;48.454;-2.058;2023-08-30T08:04:13;16.20;74.50
76613;DHT22;65507;48.454;-2.058;2023-08-30T08:06:38;16.30;74.30
76613;DHT22;65507;48.454;-2.058;2023-08-30T08:09:04;16.40;74.20
76613;DHT22;65507;48.454;-2.058;2023-08-30T08:11:31;16.50;74.20
76613;DHT22;65507;48.454;-2.058;2023-08-30T08:13:56;16.50;73.90
76613;DHT22;65507;48.454;-2.058;2023-08-30T08:16:22;16.60;74.00
76613;DHT22;65507;48.454;-2.058;2023-08-30T08:18:48;16.60;74.00
76613;DHT22;65507;48.454;-2.058;2023-08-30T08:21:13;16.60;74.10
76613;DHT22;65507;48.454;-2.058;2023-08-30T08:23:39;16.60;74.20
76613;DHT22;65507;48.454;-2.058;2023-08-30T08:26:06;16.60;74.20
76613;DHT22;65507;48.454;-2.058;2023-08-30T08:28:33;16.70;74.20
76613;DHT22;65507;48.454;-2.058;2023-08-30T08:30:58;16.70;74.10
76613;DHT22;65507;48.454;-2.058;2023-08-30T08:33:24;16.80;73.90
76613;DHT22;65507;48.454;-2.058;2023-08-30T08:35:50;17.00;74.10
76613;DHT22;65507;48.454;-2.058;2023-08-30T08:38:15;17.00;73.40
76613;DHT22;65507;48.454;-2.058;2023-08-30T08:40:41;17.10;73.40
76613;DHT22;65507;48.454;-2.058;2023-08-30T08:43:06;17.10;73.40
76613;DHT22;65507;48.454;-2.058;2023-08-30T08:45:35;17.10;73.30
76613;DHT22;65507;48.454;-2.058;2023-08-30T08:48:07;17.10;74.40
76613;DHT22;65507;48.454;-2.058;2023-08-30T08:50:33;17.20;73.30
76613;DHT22;65507;48.454;-2.058;2023-08-30T08:52:59;17.20;73.40
76613;DHT22;65507;48.454;-2.058;2023-08-30T08:55:24;17.20;73.50
76613;DHT22;65507;48.454;-2.058;2023-08-30T08:57:52;17.20;73.50
76613;DHT22;65507;48.454;-2.058;2023-08-30T09:00:18;17.20;73.50
76613;DHT22;65507;48.454;-2.058;2023-08-30T09:02:44;17.20;73.70
76613;DHT22;65507;48.454;-2.058;2023-08-30T09:05:11;17.30;73.50
76613;DHT22;65507;48.454;-2.058;2023-08-30T09:07:37;17.40;73.40
76613;DHT22;65507;48.454;-2.058;2023-08-30T09:10:03;17.60;73.10
76613;DHT22;65507;48.454;-2.058;2023-08-30T09:12:32;17.80;72.70
76613;DHT22;65507;48.454;-2.058;2023-08-30T09:14:57;17.90;72.20
76613;DHT22;65507;48.454;-2.058;2023-08-30T09:17:23;18.10;72.20
76613;DHT22;65507;48.454;-2.058;2023-08-30T09:19:49;18.30;71.70
76613;DHT22;65507;48.454;-2.058;2023-08-30T09:22:15;18.50;71.50
76613;DHT22;65507;48.454;-2.058;2023-08-30T09:24:41;18.60;71.50
76613;DHT22;65507;48.454;-2.058;2023-08-30T09:27:07;18.80;71.20
76613;DHT22;65507;48.454;-2.058;2023-08-30T09:29:32;19.00;70.80
76613;DHT22;65507;48.454;-2.058;2023-08-30T09:31:58;19.10;70.80
76613;DHT22;65507;48.454;-2.058;2023-08-30T09:34:24;19.60;71.00
76613;DHT22;65507;48.454;-2.058;2023-08-30T09:36:50;19.00;70.70
76613;DHT22;65507;48.454;-2.058;2023-08-30T09:39:16;18.90;70.80
76613;DHT22;65507;48.454;-2.058;2023-08-30T09:41:42;18.80;71.30
76613;DHT22;65507;48.454;-2.058;2023-08-30T09:44:15;18.60;71.60
76613;DHT22;65507;48.454;-2.058;2023-08-30T09:46:48;18.60;71.50
76613;DHT22;65507;48.454;-2.058;2023-08-30T09:49:14;18.60;71.50
76613;DHT22;65507;48.454;-2.058;2023-08-30T09:51:40;18.70;71.20
76613;DHT22;65507;48.454;-2.058;2023-08-30T09:54:10;18.90;70.80
76613;DHT22;65507;48.454;-2.058;2023-08-30T09:56:38;19.10;70.30
76613;DHT22;65507;48.454;-2.058;2023-08-30T09:59:05;19.20;70.20
76613;DHT22;65507;48.454;-2.058;2023-08-30T10:01:31;19.30;70.00
76613;DHT22;65507;48.454;-2.058;2023-08-30T10:03:56;19.40;69.90
76613;DHT22;65507;48.454;-2.058;2023-08-30T10:06:23;19.30;69.70
76613;DHT22;65507;48.454;-2.058;2023-08-30T10:08:49;19.30;69.80
76613;DHT22;65507;48.454;-2.058;2023-08-30T10:11:17;19.30;69.90
76613;DHT22;65507;48.454;-2.058;2023-08-30T10:13:43;19.40;69.80
76613;DHT22;65507;48.454;-2.058;2023-08-30T10:16:10;19.50;69.50
76613;DHT22;65507;48.454;-2.058;2023-08-30T10:18:36;19.60;69.30
76613;DHT22;65507;48.454;-2.058;2023-08-30T10:21:04;19.70;69.00
76613;DHT22;65507;48.454;-2.058;2023-08-30T10:23:32;19.90;68.70
76613;DHT22;65507;48.454;-2.058;2023-08-30T10:25:58;20.00;68.50
76613;DHT22;65507;48.454;-2.058;2023-08-30T10:28:24;20.10;68.20
76613;DHT22;65507;48.454;-2.058;2023-08-30T10:30:50;20.20;68.00
76613;DHT22;65507;48.454;-2.058;2023-08-30T10:33:16;20.20;68.20
76613;DHT22;65507;48.454;-2.058;2023-08-30T10:35:47;20.30;68.30
76613;DHT22;65507;48.454;-2.058;2023-08-30T10:38:23;20.20;68.40
76613;DHT22;65507;48.454;-2.058;2023-08-30T10:40:49;20.30;69.00
76613;DHT22;65507;48.454;-2.058;2023-08-30T10:43:15;20.20;69.30
76613;DHT22;65507;48.454;-2.058;2023-08-30T10:45:40;20.10;68.80
76613;DHT22;65507;48.454;-2.058;2023-08-30T10:48:06;20.00;69.20
76613;DHT22;65507;48.454;-2.058;2023-08-30T10:50:32;19.90;69.40
76613;DHT22;65507;48.454;-2.058;2023-08-30T10:52:58;19.80;69.30
76613;DHT22;65507;48.454;-2.058;2023-08-30T10:55:24;19.60;69.60
76613;DHT22;65507;48.454;-2.058;2023-08-30T10:58:02;19.60;69.70
76613;DHT22;65507;48.454;-2.058;2023-08-30T11:00:30;19.60;69.50
76613;DHT22;65507;48.454;-2.058;2023-08-30T11:02:56;19.60;70.50
76613;DHT22;65507;48.454;-2.058;2023-08-30T11:05:22;19.50;69.80
76613;DHT22;65507;48.454;-2.058;2023-08-30T11:07:49;19.50;69.40
76613;DHT22;65507;48.454;-2.058;2023-08-30T11:10:16;19.50;69.40
76613;DHT22;65507;48.454;-2.058;2023-08-30T11:12:42;19.50;69.40
76613;DHT22;65507;48.454;-2.058;2023-08-30T11:15:08;19.50;69.10
76613;DHT22;65507;48.454;-2.058;2023-08-30T11:17:35;19.50;68.90
76613;DHT22;65507;48.454;-2.058;2023-08-30T11:20:13;19.80;69.40
76613;DHT22;65507;48.454;-2.058;2023-08-30T11:22:39;19.50;68.90
76613;DHT22;65507;48.454;-2.058;2023-08-30T11:25:07;19.40;68.60
76613;DHT22;65507;48.454;-2.058;2023-08-30T11:27:32;19.40;68.70
76613;DHT22;65507;48.454;-2.058;2023-08-30T11:29:59;19.50;68.70
76613;DHT22;65507;48.454;-2.058;2023-08-30T11:32:25;19.50;68.60
76613;DHT22;65507;48.454;-2.058;2023-08-30T11:34:56;19.50;68.70
76613;DHT22;65507;48.454;-2.058;2023-08-30T11:37:23;19.50;68.60
76613;DHT22;65507;48.454;-2.058;2023-08-30T11:39:52;19.50;69.10
76613;DHT22;65507;48.454;-2.058;2023-08-30T11:42:17;19.40;68.90
76613;DHT22;65507;48.454;-2.058;2023-08-30T11:44:44;19.20;69.10
76613;DHT22;65507;48.454;-2.058;2023-08-30T11:47:09;19.20;69.20
76613;DHT22;65507;48.454;-2.058;2023-08-30T11:49:35;19.20;69.40
76613;DHT22;65507;48.454;-2.058;2023-08-30T11:52:02;19.20;69.30
76613;DHT22;65507;48.454;-2.058;2023-08-30T11:54:28;19.30;69.40
76613;DHT22;65507;48.454;-2.058;2023-08-30T11:56:53;19.40;68.90
76613;DHT22;65507;48.454;-2.058;2023-08-30T11:59:19;20.50;69.40
76613;DHT22;65507;48.454;-2.058;2023-08-30T12:01:46;19.60;68.50
76613;DHT22;65507;48.454;-2.058;2023-08-30T12:04:11;19.70;68.40
76613;DHT22;65507;48.454;-2.058;2023-08-30T12:06:37;19.70;68.20
76613;DHT22;65507;48.454;-2.058;2023-08-30T12:09:03;19.90;67.80
76613;DHT22;65507;48.454;-2.058;2023-08-30T12:11:31;20.00;67.70
76613;DHT22;65507;48.454;-2.058;2023-08-30T12:14:03;20.10;67.20
76613;DHT22;65507;48.454;-2.058;2023-08-30T12:16:28;21.10;67.30
76613;DHT22;65507;48.454;-2.058;2023-08-30T12:18:54;20.50;66.40
76613;DHT22;65507;48.454;-2.058;2023-08-30T12:21:20;20.60;66.20
76613;DHT22;65507;48.454;-2.058;2023-08-30T12:23:46;20.80;66.20
76613;DHT22;65507;48.454;-2.058;2023-08-30T12:26:11;20.90;65.80
76613;DHT22;65507;48.454;-2.058;2023-08-30T12:28:40;21.10;65.80
76613;DHT22;65507;48.454;-2.058;2023-08-30T12:31:07;21.20;65.50
76613;DHT22;65507;48.454;-2.058;2023-08-30T12:33:33;21.30;65.70
76613;DHT22;65507;48.454;-2.058;2023-08-30T12:35:59;21.40;65.40
76613;DHT22;65507;48.454;-2.058;2023-08-30T12:38:25;21.50;65.30
76613;DHT22;65507;48.454;-2.058;2023-08-30T12:40:51;21.50;65.30
76613;DHT22;65507;48.454;-2.058;2023-08-30T12:43:17;21.40;65.40
76613;DHT22;65507;48.454;-2.058;2023-08-30T12:45:43;21.40;65.60
76613;DHT22;65507;48.454;-2.058;2023-08-30T12:48:12;21.30;65.80
76613;DHT22;65507;48.454;-2.058;2023-08-30T12:50:40;21.30;65.90
76613;DHT22;65507;48.454;-2.058;2023-08-30T12:53:07;21.30;65.70
76613;DHT22;65507;48.454;-2.058;2023-08-30T12:55:32;21.30;65.70
76613;DHT22;65507;48.454;-2.058;2023-08-30T12:57:59;21.30;65.50
76613;DHT22;65507;48.454;-2.058;2023-08-30T13:00:28;21.20;65.60
76613;DHT22;65507;48.454;-2.058;2023-08-30T13:02:54;21.10;65.50
76613;DHT22;65507;48.454;-2.058;2023-08-30T13:05:19;21.10;65.70
76613;DHT22;65507;48.454;-2.058;2023-08-30T13:07:46;21.10;65.80
76613;DHT22;65507;48.454;-2.058;2023-08-30T13:10:12;21.00;66.00
76613;DHT22;65507;48.454;-2.058;2023-08-30T13:12:38;21.00;65.90
76613;DHT22;65507;48.454;-2.058;2023-08-30T13:15:04;21.10;65.80
76613;DHT22;65507;48.454;-2.058;2023-08-30T13:17:29;21.10;65.60
76613;DHT22;65507;48.454;-2.058;2023-08-30T13:19:55;21.20;65.70
76613;DHT22;65507;48.454;-2.058;2023-08-30T13:22:22;21.20;65.30
76613;DHT22;65507;48.454;-2.058;2023-08-30T13:24:47;21.10;65.30
76613;DHT22;65507;48.454;-2.058;2023-08-30T13:27:13;21.10;65.30
76613;DHT22;65507;48.454;-2.058;2023-08-30T13:29:38;21.10;65.50
76613;DHT22;65507;48.454;-2.058;2023-08-30T13:32:04;21.10;65.50
76613;DHT22;65507;48.454;-2.058;2023-08-30T13:34:30;21.10;65.30
76613;DHT22;65507;48.454;-2.058;2023-08-30T13:36:55;21.10;65.20
76613;DHT22;65507;48.454;-2.058;2023-08-30T13:39:21;21.10;65.10
76613;DHT22;65507;48.454;-2.058;2023-08-30T13:41:47;21.10;64.80
76613;DHT22;65507;48.454;-2.058;2023-08-30T13:44:13;21.20;64.60
76613;DHT22;65507;48.454;-2.058;2023-08-30T13:46:39;21.10;64.40
76613;DHT22;65507;48.454;-2.058;2023-08-30T13:49:04;21.10;64.70
76613;DHT22;65507;48.454;-2.058;2023-08-30T13:51:30;21.00;64.70
76613;DHT22;65507;48.454;-2.058;2023-08-30T13:53:56;21.00;64.70
76613;DHT22;65507;48.454;-2.058;2023-08-30T13:56:21;21.00;64.60
76613;DHT22;65507;48.454;-2.058;2023-08-30T13:58:47;23.40;65.70
76613;DHT22;65507;48.454;-2.058;2023-08-30T14:01:13;21.10;64.40
76613;DHT22;65507;48.454;-2.058;2023-08-30T14:03:38;21.10;64.20
76613;DHT22;65507;48.454;-2.058;2023-08-30T14:06:04;21.10;64.10
76613;DHT22;65507;48.454;-2.058;2023-08-30T14:08:31;21.00;64.20
76613;DHT22;65507;48.454;-2.058;2023-08-30T14:10:56;21.00;64.30
76613;DHT22;65507;48.454;-2.058;2023-08-30T14:13:22;21.00;64.50
76613;DHT22;65507;48.454;-2.058;2023-08-30T14:15:47;21.00;64.40
76613;DHT22;65507;48.454;-2.058;2023-08-30T14:18:13;21.00;64.30
76613;DHT22;65507;48.454;-2.058;2023-08-30T14:20:42;21.00;64.10
76613;DHT22;65507;48.454;-2.058;2023-08-30T14:23:07;21.00;64.00
76613;DHT22;65507;48.454;-2.058;2023-08-30T14:25:33;20.90;64.80
76613;DHT22;65507;48.454;-2.058;2023-08-30T14:27:59;20.80;64.50
76613;DHT22;65507;48.454;-2.058;2023-08-30T14:30:25;20.80;64.30
76613;DHT22;65507;48.454;-2.058;2023-08-30T14:32:51;20.80;64.30
76613;DHT22;65507;48.454;-2.058;2023-08-30T14:35:16;20.80;64.20
76613;DHT22;65507;48.454;-2.058;2023-08-30T14:37:42;20.90;64.40
76613;DHT22;65507;48.454;-2.058;2023-08-30T14:40:08;20.90;64.20
76613;DHT22;65507;48.454;-2.058;2023-08-30T14:42:33;20.90;64.40
76613;DHT22;65507;48.454;-2.058;2023-08-30T14:44:59;20.90;64.00
76613;DHT22;65507;48.454;-2.058;2023-08-30T14:47:24;20.90;64.00
76613;DHT22;65507;48.454;-2.058;2023-08-30T14:49:50;20.90;64.10
76613;DHT22;65507;48.454;-2.058;2023-08-30T14:52:15;20.90;63.90
76613;DHT22;65507;48.454;-2.058;2023-08-30T14:54:44;20.80;64.00
76613;DHT22;65507;48.454;-2.058;2023-08-30T14:57:10;20.80;64.00
76613;DHT22;65507;48.454;-2.058;2023-08-30T14:59:35;20.90;64.00
76613;DHT22;65507;48.454;-2.058;2023-08-30T15:02:04;21.00;63.70
76613;DHT22;65507;48.454;-2.058;2023-08-30T15:04:29;21.00;63.50
76613;DHT22;65507;48.454;-2.058;2023-08-30T15:06:55;20.90;63.50
76613;DHT22;65507;48.454;-2.058;2023-08-30T15:09:20;21.00;63.60
76613;DHT22;65507;48.454;-2.058;2023-08-30T15:11:46;21.00;63.40
76613;DHT22;65507;48.454;-2.058;2023-08-30T15:14:11;21.10;63.30
76613;DHT22;65507;48.454;-2.058;2023-08-30T15:16:37;18.90;62.00